Time;durP1;ratioP1;P1;durP2;ratioP2;P2;SDS_P1;SDS_P2;PMS_P1;PMS_P2;Temp;Humidity;BMP_temperature;BMP_pressure;BME280_temperature;BME280_humidity;BME280_pressure;Samples;Min_cycle;Max_cycle;Signal;HPM_P1;HPM_P2
2023/03/13 00:01:49;;;;;;;0.50;0.50;;;;;;;9.00;100.00;99533.94;5016344;28;20380;-47
2023/03/13 00:04:15;;;;;;;0.63;0.63;;;;;;;8.99;100.00;99538.53;5015114;28;20041;-48
2023/03/13 00:06:41;;;;;;;0.68;0.30;;;;;;;8.96;100.00;99539.25;5013714;28;20041;-47
2023/03/13 00:09:10;;;;;;;0.63;0.63;;;;;;;8.95;100.00;99529.69;5012889;28;20468;-52
2023/03/13 00:11:36;;;;;;;0.52;0.52;;;;;;;8.97;100.00;99532.00;5014219;28;20034;-49
2023/03/13 00:14:03;;;;;;;0.30;0.30;;;;;;;9.02;100.00;99515.53;5013282;28;20032;-47
2023/03/13 00:16:30;;;;;;;1.13;0.52;;;;;;;8.93;100.00;99515.06;5016539;28;20037;-51
2023/03/13 00:18:57;;;;;;;0.15;0.15;;;;;;;9.01;100.00;99511.31;5020663;28;20042;-44
2023/03/13 00:21:25;;;;;;;0.40;0.40;;;;;;;8.95;100.00;99502.06;5007953;28;20048;-49
2023/03/13 00:23:51;;;;;;;0.32;0.32;;;;;;;8.91;100.00;99496.66;5012345;28;20427;-49
2023/03/13 00:26:19;;;;;;;0.20;0.20;;;;;;;8.89;100.00;99493.56;5012937;28;20150;-43
2023/03/13 00:28:46;;;;;;;0.35;0.35;;;;;;;9.06;100.00;99492.16;5008602;28;20439;-45
2023/03/13 00:31:16;;;;;;;0.55;0.55;;;;;;;9.01;100.00;99498.66;5017704;28;20033;-48
2023/03/13 00:33:44;;;;;;;0.65;0.65;;;;;;;9.09;100.00;99491.44;5003328;28;20407;-49
2023/03/13 00:36:12;;;;;;;0.50;0.50;;;;;;;9.05;100.00;99483.34;5004545;28;20030;-49
2023/03/13 00:38:39;;;;;;;0.20;0.20;;;;;;;9.06;100.00;99490.25;5015972;28;20120;-52
2023/03/13 00:41:08;;;;;;;0.20;0.20;;;;;;;9.01;100.00;99484.47;5009622;28;20397;-44
2023/03/13 00:43:34;;;;;;;0.30;0.30;;;;;;;9.12;100.00;99487.25;5019549;28;20041;-45
2023/03/13 00:46:00;;;;;;;0.30;0.30;;;;;;;9.05;100.00;99488.72;5019492;28;20066;-52
2023/03/13 00:48:26;;;;;;;0.10;0.10;;;;;;;9.08;100.00;99482.59;5018701;28;20052;-51
2023/03/13 00:50:52;;;;;;;0.20;0.20;;;;;;;8.98;100.00;99469.84;5023103;28;20487;-59
2023/03/13 00:53:19;;;;;;;0.20;0.20;;;;;;;9.03;100.00;99469.53;5023052;28;20032;-44
2023/03/13 00:55:57;;;;;;;0.73;0.57;;;;;;;9.09;100.00;99462.66;5017882;28;20088;-48
2023/03/13 00:58:25;;;;;;;0.40;0.40;;;;;;;9.00;100.00;99453.41;5034819;28;20029;-48
2023/03/13 01:00:51;;;;;;;2.45;0.40;;;;;;;8.98;100.00;99443.00;5024273;28;20048;-48
2023/03/13 01:03:17;;;;;;;0.20;0.20;;;;;;;8.97;100.00;99446.84;5041395;28;20527;-50
2023/03/13 01:05:43;;;;;;;0.80;0.75;;;;;;;9.16;100.00;99443.13;5027409;28;20025;-45
2023/03/13 01:08:08;;;;;;;0.20;0.20;;;;;;;9.12;100.00;99442.34;5019557;28;20522;-47
2023/03/13 01:10:35;;;;;;;0.20;0.20;;;;;;;9.05;100.00;99436.94;5016220;28;20033;-47
2023/03/13 01:13:03;;;;;;;0.20;0.20;;;;;;;9.14;100.00;99426.63;5026617;28;20025;-44
2023/03/13 01:15:32;;;;;;;0.40;0.25;;;;;;;9.17;100.00;99425.88;5024927;28;20033;-44
2023/03/13 01:17:58;;;;;;;0.25;0.25;;;;;;;9.35;100.00;99421.34;5048030;28;20467;-42
2023/03/13 01:20:23;;;;;;;0.28;0.28;;;;;;;9.26;100.00;99425.53;5026873;28;20037;-43
2023/03/13 01:22:49;;;;;;;0.32;0.32;;;;;;;9.20;100.00;99419.75;5047156;28;20116;-47
2023/03/13 01:25:16;;;;;;;0.35;0.35;;;;;;;9.16;100.00;99410.91;5016242;28;20064;-52
2023/03/13 01:27:42;;;;;;;0.43;0.40;;;;;;;9.18;100.00;99405.94;5028771;28;20116;-49
2023/03/13 01:30:08;;;;;;;0.17;0.17;;;;;;;9.14;100.00;99407.81;5041647;28;20124;-51
2023/03/13 01:32:33;;;;;;;0.20;0.20;;;;;;;9.19;100.00;99404.00;5027214;28;20022;-48
2023/03/13 01:35:01;;;;;;;0.20;0.20;;;;;;;9.24;100.00;99400.97;5022670;28;20092;-47
2023/03/13 01:37:26;;;;;;;0.28;0.28;;;;;;;9.36;100.00;99389.91;5028822;28;20025;-43
2023/03/13 01:39:52;;;;;;;0.75;0.75;;;;;;;9.37;100.00;99386.81;5044638;28;20060;-46
2023/03/13 01:42:17;;;;;;;0.90;0.90;;;;;;;9.32;100.00;99376.44;5031464;28;20111;-44
2023/03/13 01:44:51;;;;;;;0.20;0.20;;;;;;;9.42;100.00;99366.91;5019027;28;20386;-48
2023/03/13 01:47:17;;;;;;;0.20;0.20;;;;;;;9.37;100.00;99365.34;5040065;28;20116;-47
2023/03/13 01:50:05;;;;;;;0.65;0.65;;;;;;;9.46;100.00;99346.97;5007946;28;20042;-43
2023/03/13 01:52:55;;;;;;;0.20;0.20;;;;;;;9.49;100.00;99340.03;5035963;28;20487;-43
2023/03/13 01:55:25;;;;;;;0.80;0.80;;;;;;;9.50;100.00;99341.59;5030007;28;20067;-43
2023/03/13 01:57:53;;;;;;;0.30;0.30;;;;;;;9.32;100.00;99327.31;5046876;28;21574;-42
2023/03/13 02:00:29;;;;;;;0.20;0.20;;;;;;;9.39;100.00;99327.38;5028840;28;20068;-47
2023/03/13 02:02:58;;;;;;;0.10;0.10;;;;;;;9.48;100.00;99312.44;5032307;28;20439;-50
2023/03/13 02:05:26;;;;;;;0.20;0.20;;;;;;;9.32;100.00;99317.34;5017439;28;20037;-42
2023/03/13 02:08:05;;;;;;;0.20;0.20;;;;;;;9.37;100.00;99308.16;5029212;28;20075;-44
2023/03/13 02:10:37;;;;;;;0.20;0.20;;;;;;;9.16;100.00;99297.31;5033464;28;20029;-54
2023/03/13 02:13:03;;;;;;;0.30;0.30;;;;;;;9.09;100.00;99296.19;5029617;28;20033;-54
2023/03/13 02:15:30;;;;;;;0.20;0.20;;;;;;;9.19;100.00;99288.53;5025853;28;20034;-43
2023/03/13 02:17:56;;;;;;;0.30;0.30;;;;;;;9.20;100.00;99290.06;5028921;28;20057;-47
2023/03/13 02:20:23;;;;;;;1.85;1.08;;;;;;;8.87;100.00;99275.75;5032055;28;20098;-47
2023/03/13 02:23:17;;;;;;;0.63;0.50;;;;;;;9.04;100.00;99279.63;5028520;28;20056;-47
2023/03/13 02:25:49;;;;;;;0.17;0.17;;;;;;;9.16;100.00;99268.56;5031883;28;20030;-52
2023/03/13 02:28:34;;;;;;;0.20;0.20;;;;;;;9.14;100.00;99264.75;5015779;28;20041;-48
2023/03/13 02:31:02;;;;;;;0.20;0.20;;;;;;;9.17;100.00;99266.66;5031497;28;20029;-46
2023/03/13 02:33:33;;;;;;;0.88;0.60;;;;;;;9.21;100.00;99256.69;5029389;28;20674;-50
2023/03/13 02:36:01;;;;;;;0.30;0.30;;;;;;;9.23;100.00;99257.84;5037292;28;20053;-44
2023/03/13 02:38:30;;;;;;;0.60;0.60;;;;;;;9.18;100.00;99250.16;5030681;28;20040;-49
2023/03/13 02:40:58;;;;;;;0.13;0.13;;;;;;;9.24;100.00;99254.00;5021373;28;20116;-42
2023/03/13 02:43:37;;;;;;;1.05;0.73;;;;;;;9.33;100.00;99242.91;5033218;28;20056;-45
2023/03/13 02:46:16;;;;;;;0.20;0.20;;;;;;;9.27;100.00;99242.50;5021501;28;20533;-43
2023/03/13 02:48:50;;;;;;;0.20;0.20;;;;;;;9.26;100.00;99235.59;5039922;28;20075;-43
2023/03/13 02:51:28;;;;;;;0.10;0.10;;;;;;;9.23;100.00;99228.31;5031232;28;20164;-42
2023/03/13 02:53:58;;;;;;;0.13;0.13;;;;;;;9.29;100.00;99232.13;5036089;28;20110;-53
2023/03/13 02:56:26;;;;;;;0.30;0.30;;;;;;;9.33;100.00;99222.16;5028637;28;20469;-42
2023/03/13 02:58:52;;;;;;;0.65;0.45;;;;;;;9.39;100.00;99226.03;5039933;28;20038;-42
2023/03/13 03:01:21;;;;;;;0.30;0.30;;;;;;;9.33;100.00;99226.81;5012503;28;20029;-51
2023/03/13 03:03:47;;;;;;;0.25;0.25;;;;;;;9.31;100.00;99213.72;5027853;28;20381;-48
2023/03/13 03:06:13;;;;;;;0.45;0.45;;;;;;;9.37;100.00;99206.09;5037284;28;20553;-52
2023/03/13 03:08:40;;;;;;;0.30;0.30;;;;;;;9.35;100.00;99201.06;5034858;28;20033;-44
2023/03/13 03:11:07;;;;;;;0.43;0.43;;;;;;;9.38;100.00;99192.25;5038877;28;20175;-42
2023/03/13 03:13:32;;;;;;;0.35;0.35;;;;;;;9.21;100.00;99194.94;5042454;28;20034;-47
2023/03/13 03:15:58;;;;;;;0.20;0.20;;;;;;;9.25;100.00;99188.41;5033928;28;20037;-50
2023/03/13 03:18:24;;;;;;;1.15;1.10;;;;;;;9.29;100.00;99177.66;5024890;28;20120;-54
2023/03/13 03:20:49;;;;;;;0.73;0.35;;;;;;;9.33;100.00;99173.06;5029315;28;20514;-43
2023/03/13 03:23:16;;;;;;;0.30;0.30;;;;;;;9.21;100.00;99171.53;5038950;28;20025;-46
2023/03/13 03:25:42;;;;;;;0.20;0.20;;;;;;;9.35;100.00;99170.78;5027640;28;20037;-46
2023/03/13 03:28:08;;;;;;;0.20;0.20;;;;;;;9.33;100.00;99170.38;5039057;28;20035;-50
2023/03/13 03:30:33;;;;;;;0.30;0.30;;;;;;;8.95;100.00;99156.50;5027876;28;20025;-54
2023/03/13 03:33:02;;;;;;;0.52;0.30;;;;;;;9.10;100.00;99143.88;5020287;28;20038;-44
2023/03/13 03:35:29;;;;;;;0.40;0.40;;;;;;;9.32;100.00;99145.44;5027238;28;20445;-48
2023/03/13 03:37:54;;;;;;;0.30;0.30;;;;;;;9.47;100.00;99146.19;5032556;28;20025;-47
2023/03/13 03:40:20;;;;;;;0.13;0.13;;;;;;;9.49;100.00;99135.84;5032494;28;20037;-43
2023/03/13 03:42:46;;;;;;;0.20;0.20;;;;;;;9.21;100.00;99127.78;5027394;28;20040;-45
2023/03/13 03:45:12;;;;;;;1.27;0.22;;;;;;;9.24;100.00;99129.69;5022061;28;20032;-42
2023/03/13 03:47:37;;;;;;;1.45;0.28;;;;;;;9.33;100.00;99111.28;5033468;28;20074;-43
2023/03/13 03:50:03;;;;;;;0.25;0.25;;;;;;;9.45;100.00;99108.19;5031277;28;20407;-49
2023/03/13 03:52:33;;;;;;;0.55;0.55;;;;;;;9.39;100.00;99107.81;5032360;28;20026;-44
2023/03/13 03:54:58;;;;;;;2.08;0.95;;;;;;;9.24;100.00;99100.16;5027773;28;20507;-43
2023/03/13 03:57:24;;;;;;;0.68;0.60;;;;;;;9.30;100.00;99098.63;5029072;28;20116;-48
2023/03/13 03:59:49;;;;;;;0.75;0.55;;;;;;;9.20;100.00;99088.63;5030191;28;20034;-47
2023/03/13 04:02:16;;;;;;;0.20;0.20;;;;;;;9.31;100.00;99076.00;5027528;28;20471;-52
2023/03/13 04:04:43;;;;;;;0.10;0.10;;;;;;;9.13;100.00;99077.91;5038590;28;20113;-53
2023/03/13 04:07:21;;;;;;;0.22;0.22;;;;;;;9.21;100.00;99077.53;5019008;28;20517;-42
2023/03/13 04:09:47;;;;;;;0.20;0.20;;;;;;;9.22;100.00;99073.69;5033446;28;20030;-56
2023/03/13 04:12:20;;;;;;;0.30;0.30;;;;;;;9.35;100.00;99061.38;5025868;28;20033;-43
2023/03/13 04:14:47;;;;;;;0.15;0.15;;;;;;;9.37;100.00;99067.13;5041528;28;20025;-48
2023/03/13 04:17:14;;;;;;;0.20;0.20;;;;;;;9.33;100.00;99054.88;5017687;28;20064;-49
2023/03/13 04:19:41;;;;;;;0.20;0.20;;;;;;;9.23;100.00;99044.91;5029750;28;20034;-45
2023/03/13 04:22:07;;;;;;;0.30;0.30;;;;;;;9.26;100.00;99036.06;5031304;28;20032;-42
2023/03/13 04:24:33;;;;;;;0.10;0.10;;;;;;;9.41;100.00;99051.00;5024203;28;20026;-43
2023/03/13 04:26:58;;;;;;;0.45;0.45;;;;;;;9.34;100.00;99040.28;5010888;28;20095;-45
2023/03/13 04:29:25;;;;;;;0.80;0.80;;;;;;;9.36;100.00;99019.94;5029522;28;20029;-53
2023/03/13 04:32:01;;;;;;;0.35;0.35;;;;;;;9.14;100.00;99021.13;5014460;28;20033;-47
2023/03/13 04:34:47;;;;;;;0.20;0.20;;;;;;;9.19;100.00;99009.22;5033572;28;20044;-46
2023/03/13 04:37:26;;;;;;;0.20;0.20;;;;;;;9.17;100.00;99003.47;4961401;28;20469;-43
2023/03/13 04:40:01;;;;;;;0.20;0.20;;;;;;;9.21;100.00;98985.44;4952001;28;20700;-50
2023/03/13 04:42:46;;;;;;;0.10;0.10;;;;;;;9.18;100.00;98978.91;4967618;28;20053;-44
2023/03/13 04:45:35;;;;;;;0.77;0.77;;;;;;;9.24;100.00;98971.22;4953156;28;20509;-49
2023/03/13 04:48:20;;;;;;;0.47;0.47;;;;;;;8.95;100.00;98963.22;4963161;28;20070;-45
2023/03/13 04:51:02;;;;;;;0.30;0.30;;;;;;;9.25;100.00;98951.28;4953493;28;20142;-45
2023/03/13 04:53:57;;;;;;;0.15;0.15;;;;;;;9.23;100.00;98938.25;4968305;28;20062;-51
2023/03/13 04:56:52;;;;;;;0.20;0.20;;;;;;;9.40;100.00;98934.75;4953297;28;20038;-48
2023/03/13 04:59:35;;;;;;;0.17;0.17;;;;;;;9.35;100.00;98926.34;4954598;28;20112;-52
2023/03/13 05:02:21;;;;;;;0.20;0.20;;;;;;;9.32;100.00;98914.44;4950269;28;20146;-43
2023/03/13 05:04:47;;;;;;;0.50;0.50;;;;;;;9.45;100.00;98909.38;4975535;28;20145;-48
2023/03/13 05:07:31;;;;;;;0.10;0.10;;;;;;;9.42;100.00;98902.13;4970338;28;20057;-45
2023/03/13 05:10:16;;;;;;;1.75;0.35;;;;;;;9.33;100.00;98897.16;4961181;28;20039;-42
2023/03/13 05:13:05;;;;;;;0.15;0.15;;;;;;;9.25;100.00;98881.47;4980401;28;20066;-46
2023/03/13 05:15:48;;;;;;;0.40;0.40;;;;;;;9.34;100.00;98869.16;5031398;28;20033;-47
2023/03/13 05:18:32;;;;;;;0.25;0.25;;;;;;;9.29;100.00;98863.41;5022834;28;20067;-51
2023/03/13 05:21:06;;;;;;;0.10;0.10;;;;;;;9.30;100.00;98848.81;5027035;28;20064;-42
2023/03/13 05:23:51;;;;;;;0.20;0.20;;;;;;;9.38;100.00;98842.28;5020458;28;20042;-42
2023/03/13 05:26:35;;;;;;;0.40;0.40;;;;;;;9.50;100.00;98841.84;5027931;28;20569;-43
2023/03/13 05:29:03;;;;;;;0.22;0.22;;;;;;;9.16;100.00;98833.53;5028067;28;20039;-47
2023/03/13 05:31:37;;;;;;;0.13;0.13;;;;;;;9.18;100.00;98828.53;5025047;28;20057;-45
2023/03/13 05:34:21;;;;;;;0.28;0.28;;;;;;;9.39;100.00;98816.94;5033080;28;20059;-45
2023/03/13 05:37:05;;;;;;;0.22;0.22;;;;;;;9.42;100.00;98810.78;5032832;28;20033;-48
2023/03/13 05:39:50;;;;;;;0.17;0.17;;;;;;;9.30;100.00;98813.91;5032210;28;20075;-42
2023/03/13 05:42:31;;;;;;;0.25;0.25;;;;;;;9.14;100.00;98816.31;5034855;28;20079;-46
2023/03/13 05:45:09;;;;;;;0.20;0.20;;;;;;;9.37;100.00;98808.53;5015989;28;20037;-43
2023/03/13 05:47:55;;;;;;;1.83;1.35;;;;;;;9.44;100.00;98819.22;5017683;28;20033;-43
2023/03/13 05:50:46;;;;;;;0.28;0.28;;;;;;;9.32;100.00;98817.75;5005769;28;20042;-43
2023/03/13 05:53:33;;;;;;;0.20;0.20;;;;;;;9.35;100.00;98800.09;5014839;28;20030;-52
2023/03/13 05:56:15;;;;;;;0.20;0.20;;;;;;;9.46;100.00;98801.56;5021155;28;20033;-47
2023/03/13 05:58:46;;;;;;;0.20;0.20;;;;;;;9.49;100.00;98781.94;5017299;28;20038;-47
2023/03/13 06:01:32;;;;;;;0.20;0.20;;;;;;;9.48;100.00;98774.28;4994797;28;20420;-47
2023/03/13 06:04:05;;;;;;;0.17;0.17;;;;;;;9.35;100.00;98775.91;5013699;28;20112;-45
2023/03/13 06:06:33;;;;;;;0.47;0.30;;;;;;;9.55;100.00;98775.00;5020014;28;20107;-43
2023/03/13 06:08:59;;;;;;;0.22;0.22;;;;;;;9.46;100.00;98768.53;5014392;28;20167;-49
2023/03/13 06:11:27;;;;;;;0.70;0.68;;;;;;;9.45;100.00;98758.94;5017934;28;20103;-43
2023/03/13 06:13:54;;;;;;;0.10;0.10;;;;;;;9.48;100.00;98756.25;5006224;28;20112;-53
2023/03/13 06:16:43;;;;;;;0.10;0.10;;;;;;;9.51;100.00;98760.06;4974090;28;20124;-56
2023/03/13 06:19:17;;;;;;;3.00;0.63;;;;;;;9.45;100.00;98758.94;4998860;28;20041;-50
2023/03/13 06:21:43;;;;;;;0.20;0.20;;;;;;;9.57;100.00;98761.19;5013151;28;20049;-50
2023/03/13 06:24:08;;;;;;;0.55;0.55;;;;;;;9.64;100.00;98739.66;5003570;28;21069;-55
2023/03/13 06:26:34;;;;;;;0.20;0.20;;;;;;;9.49;100.00;98733.59;5003133;28;20136;-43
2023/03/13 06:28:59;;;;;;;0.20;0.20;;;;;;;9.22;100.00;98737.22;5019759;28;20026;-45
2023/03/13 06:31:24;;;;;;;0.77;0.77;;;;;;;9.50;100.00;98745.13;5013588;28;20037;-42
2023/03/13 06:33:53;;;;;;;0.10;0.10;;;;;;;9.40;100.00;98729.81;5012665;28;20084;-44
2023/03/13 06:36:19;;;;;;;0.20;0.20;;;;;;;9.53;100.00;98737.03;5012501;28;20159;-53
2023/03/13 06:38:45;;;;;;;0.30;0.30;;;;;;;9.66;100.00;98731.94;5014451;28;20401;-52
2023/03/13 06:41:10;;;;;;;0.30;0.30;;;;;;;9.72;100.00;98733.03;5013422;28;20037;-42
2023/03/13 06:43:39;;;;;;;0.35;0.35;;;;;;;9.78;100.00;98723.38;5024615;28;20037;-44
2023/03/13 06:46:26;;;;;;;0.20;0.20;;;;;;;9.73;100.00;98715.75;5019277;28;20061;-43
2023/03/13 06:48:51;;;;;;;0.20;0.20;;;;;;;9.80;100.00;98713.00;4933898;29;20090;-42
2023/03/13 06:51:19;;;;;;;0.30;0.30;;;;;;;9.78;100.00;98705.34;4941656;29;20047;-43
2023/03/13 06:53:45;;;;;;;0.10;0.10;;;;;;;9.87;100.00;98686.09;4941465;29;20043;-43
2023/03/13 06:56:10;;;;;;;0.20;0.20;;;;;;;9.65;100.00;98685.50;4939826;29;20402;-43
2023/03/13 06:58:36;;;;;;;0.13;0.13;;;;;;;9.83;100.00;98677.28;4942867;28;20049;-49
2023/03/13 07:01:09;;;;;;;0.65;0.40;;;;;;;9.96;100.00;98673.69;4940932;29;20494;-43
2023/03/13 07:03:36;;;;;;;0.38;0.35;;;;;;;10.04;100.00;98658.25;4938852;28;20046;-49
2023/03/13 07:06:02;;;;;;;0.20;0.20;;;;;;;10.12;100.00;98662.44;4939061;28;20082;-45
2023/03/13 07:08:28;;;;;;;0.10;0.10;;;;;;;10.02;100.00;98660.59;4933302;29;20557;-44
2023/03/13 07:10:58;;;;;;;0.40;0.20;;;;;;;10.13;100.00;98663.94;4947557;28;20030;-43
2023/03/13 07:13:24;;;;;;;0.35;0.35;;;;;;;10.22;100.00;98672.28;4941541;29;20061;-43
2023/03/13 07:15:50;;;;;;;0.20;0.20;;;;;;;10.22;100.00;98658.09;4942634;29;20039;-43
2023/03/13 07:18:15;;;;;;;0.13;0.13;;;;;;;10.27;100.00;98642.28;4949714;29;20043;-44
2023/03/13 07:20:41;;;;;;;0.10;0.10;;;;;;;10.25;100.00;98658.06;4950003;29;20024;-49
2023/03/13 07:23:06;;;;;;;0.10;0.10;;;;;;;10.28;100.00;98651.13;4950247;29;20122;-43
2023/03/13 07:25:32;;;;;;;0.20;0.20;;;;;;;10.24;100.00;98651.13;4978951;28;20036;-43
2023/03/13 07:27:59;;;;;;;0.20;0.20;;;;;;;10.33;100.00;98637.22;5024968;28;20037;-48
2023/03/13 07:30:25;;;;;;;0.10;0.10;;;;;;;10.36;100.00;98639.84;5027402;28;20116;-43
2023/03/13 07:32:53;;;;;;;0.47;0.32;;;;;;;10.31;100.00;98634.94;5026678;28;20122;-48
2023/03/13 07:35:19;;;;;;;0.10;0.10;;;;;;;10.27;100.00;98625.38;5017264;28;20507;-43
2023/03/13 07:38:04;;;;;;;0.17;0.17;;;;;;;10.20;100.00;98628.16;5019786;28;20025;-43
2023/03/13 07:40:30;;;;;;;0.10;0.10;;;;;;;10.35;100.00;98624.13;5008669;28;20559;-46
2023/03/13 07:42:55;;;;;;;0.20;0.20;;;;;;;10.37;100.00;98635.25;5007694;28;20048;-43
2023/03/13 07:45:21;;;;;;;0.10;0.10;;;;;;;10.38;100.00;98632.16;5017229;28;20045;-48
2023/03/13 07:47:46;;;;;;;0.20;0.20;;;;;;;10.35;100.00;98621.44;5001608;28;20046;-48
2023/03/13 07:50:12;;;;;;;0.20;0.20;;;;;;;10.38;100.00;98624.06;5005770;28;20042;-43
2023/03/13 07:52:37;;;;;;;0.20;0.20;;;;;;;10.52;100.00;98623.91;5008460;28;20053;-42
2023/03/13 07:55:03;;;;;;;0.10;0.10;;;;;;;10.55;100.00;98623.09;5005019;28;20124;-53
2023/03/13 07:57:29;;;;;;;0.20;0.20;;;;;;;10.54;100.00;98621.56;5005790;28;20041;-50
2023/03/13 07:59:54;;;;;;;0.43;0.43;;;;;;;10.71;100.00;98615.19;5002024;28;20065;-49
2023/03/13 08:02:20;;;;;;;0.10;0.10;;;;;;;10.57;100.00;98614.59;4999066;28;20239;-46
2023/03/13 08:04:45;;;;;;;0.30;0.30;;;;;;;10.76;100.00;98613.97;5011285;28;20580;-43
2023/03/13 08:07:11;;;;;;;0.10;0.10;;;;;;;10.78;100.00;98609.69;5012717;28;20053;-50
2023/03/13 08:09:36;;;;;;;0.40;0.40;;;;;;;10.80;100.00;98615.44;5019325;28;20026;-43
2023/03/13 08:12:03;;;;;;;0.10;0.10;;;;;;;10.77;100.00;98608.19;4994580;28;20180;-49
2023/03/13 08:14:28;;;;;;;0.55;0.28;;;;;;;10.77;100.00;98610.09;5010053;28;20516;-44
2023/03/13 08:16:54;;;;;;;0.10;0.10;;;;;;;10.91;100.00;98596.44;5010073;28;20171;-43
2023/03/13 08:19:19;;;;;;;0.77;0.77;;;;;;;10.99;100.00;98592.50;5009976;28;20045;-52
2023/03/13 08:21:45;;;;;;;0.10;0.10;;;;;;;10.90;100.00;98601.06;5010720;28;20120;-43
2023/03/13 08:24:11;;;;;;;0.15;0.15;;;;;;;10.93;100.00;98599.50;5027785;28;20025;-43
2023/03/13 08:26:40;;;;;;;0.25;0.25;;;;;;;11.07;100.00;98598.53;5028692;28;20026;-49
2023/03/13 08:29:11;;;;;;;0.75;0.17;;;;;;;11.08;100.00;98589.25;5028482;28;20063;-53
2023/03/13 08:31:43;;;;;;;0.20;0.20;;;;;;;11.21;100.00;98584.81;5020856;28;20026;-44
2023/03/13 08:34:11;;;;;;;0.10;0.10;;;;;;;11.20;100.00;98581.38;5015679;28;20543;-42
2023/03/13 08:36:36;;;;;;;0.30;0.30;;;;;;;11.37;100.00;98593.78;5022601;28;20034;-45
2023/03/13 08:39:19;;;;;;;0.20;0.20;;;;;;;11.47;100.00;98576.69;5036716;28;20029;-52
2023/03/13 08:41:45;;;;;;;0.20;0.20;;;;;;;11.52;100.00;98575.44;5027908;28;20091;-49
2023/03/13 08:44:13;;;;;;;0.10;0.10;;;;;;;11.63;100.00;98587.56;5039684;28;20039;-44
2023/03/13 08:46:39;;;;;;;0.10;0.10;;;;;;;11.75;100.00;98567.34;5047290;28;20033;-49
2023/03/13 08:49:06;;;;;;;0.93;0.45;;;;;;;11.83;100.00;98571.44;5044027;28;20400;-50
2023/03/13 08:51:32;;;;;;;0.10;0.10;;;;;;;11.82;100.00;98574.56;5029240;28;20063;-47
2023/03/13 08:53:57;;;;;;;0.38;0.20;;;;;;;11.97;100.00;98571.16;5028609;28;20052;-45
2023/03/13 08:56:25;;;;;;;0.10;0.10;;;;;;;11.92;100.00;98563.56;5023245;28;20029;-45
2023/03/13 08:58:53;;;;;;;0.17;0.17;;;;;;;12.07;100.00;98561.34;5041753;28;20037;-47
2023/03/13 09:01:20;;;;;;;0.25;0.25;;;;;;;12.16;100.00;98550.75;5027368;28;20033;-43
2023/03/13 09:03:45;;;;;;;0.00;0.00;;;;;;;12.28;100.00;98560.91;5028941;28;20030;-45
2023/03/13 09:06:11;;;;;;;0.30;0.30;;;;;;;12.35;100.00;98556.13;5042970;28;20120;-50
2023/03/13 09:08:38;;;;;;;0.10;0.10;;;;;;;12.23;100.00;98548.66;5031641;28;20109;-44
2023/03/13 09:11:09;;;;;;;0.03;0.03;;;;;;;12.26;100.00;98558.63;5013812;28;20041;-51
2023/03/13 09:13:37;;;;;;;1.08;0.35;;;;;;;12.36;100.00;98546.88;5025260;28;20021;-42
2023/03/13 09:16:06;;;;;;;0.00;0.00;;;;;;;12.38;100.00;98541.03;5013160;28;20046;-46
2023/03/13 09:18:32;;;;;;;0.30;0.25;;;;;;;12.59;100.00;98552.13;5022443;28;20095;-49
2023/03/13 09:20:58;;;;;;;0.10;0.10;;;;;;;12.58;100.00;98556.00;5032469;28;20079;-52
2023/03/13 09:23:24;;;;;;;0.10;0.10;;;;;;;12.70;100.00;98541.09;5037233;28;20061;-49
2023/03/13 09:25:54;;;;;;;0.20;0.20;;;;;;;12.73;100.00;98542.97;5031103;28;20100;-47
2023/03/13 09:28:19;;;;;;;0.05;0.05;;;;;;;12.59;100.00;98535.16;5035603;28;20419;-44
2023/03/13 09:30:45;;;;;;;0.17;0.17;;;;;;;12.72;100.00;98537.97;5035281;28;20024;-47
2023/03/13 09:33:11;;;;;;;0.20;0.20;;;;;;;12.80;100.00;98539.31;5029606;28;20026;-45
2023/03/13 09:35:38;;;;;;;0.10;0.10;;;;;;;12.91;100.00;98543.28;5033918;28;20037;-44
2023/03/13 09:38:04;;;;;;;0.22;0.22;;;;;;;13.00;100.00;98534.59;5035016;28;20860;-43
2023/03/13 09:40:35;;;;;;;0.10;0.10;;;;;;;12.99;100.00;98541.94;5037659;28;20041;-48
2023/03/13 09:43:01;;;;;;;0.10;0.10;;;;;;;13.08;100.00;98544.09;5024249;28;20073;-46
2023/03/13 09:45:32;;;;;;;0.10;0.10;;;;;;;13.07;100.00;98539.84;5024005;28;20095;-49
2023/03/13 09:48:07;;;;;;;;;;;;;;;13.04;100.00;98535.31;5020672;28;20037;-43
2023/03/13 09:50:41;;;;;;;0.20;0.20;;;;;;;13.18;100.00;98541.13;5016441;28;19917;-47
2023/03/13 09:53:17;;;;;;;0.10;0.10;;;;;;;13.15;100.00;98541.22;5024234;28;20397;-44
2023/03/13 09:55:44;;;;;;;0.20;0.20;;;;;;;13.27;100.00;98540.53;5021414;28;20036;-44
2023/03/13 09:58:09;;;;;;;0.57;0.30;;;;;;;13.06;100.00;98541.06;5037662;28;20098;-47
2023/03/13 10:00:38;;;;;;;0.13;0.13;;;;;;;13.23;100.00;98542.56;5031958;28;20796;-54
2023/03/13 10:03:16;;;;;;;0.40;0.40;;;;;;;13.24;100.00;98536.72;5028347;28;20077;-43
2023/03/13 10:05:48;;;;;;;0.10;0.10;;;;;;;13.21;100.00;98537.59;5020288;28;20033;-44
2023/03/13 10:08:18;;;;;;;;;;;;;;;13.26;100.00;98544.41;5044575;28;20559;-52
2023/03/13 10:10:53;;;;;;;0.20;0.20;;;;;;;13.26;100.00;98555.22;5035890;28;20071;-53
2023/03/13 10:13:26;;;;;;;0.22;0.20;;;;;;;13.24;100.00;98549.50;5031608;28;20029;-44
2023/03/13 10:15:59;;;;;;;0.10;0.10;;;;;;;13.34;100.00;98543.03;5027347;28;20044;-47
2023/03/13 10:18:25;;;;;;;0.28;0.25;;;;;;;13.56;100.00;98544.03;5014556;28;20087;-45
2023/03/13 10:21:11;;;;;;;0.10;0.10;;;;;;;13.57;100.00;98553.66;5030996;28;20790;-43
2023/03/13 10:23:52;;;;;;;0.77;0.77;;;;;;;13.45;100.00;98548.97;5013508;28;20032;-48
2023/03/13 10:26:26;;;;;;;;;;;;;;;13.67;100.00;98555.31;5017028;28;20452;-44
2023/03/13 10:28:53;;;;;;;0.43;0.20;;;;;;;13.57;100.00;98562.53;5020009;28;19913;-46
2023/03/13 10:31:33;;;;;;;0.20;0.20;;;;;;;13.48;100.00;98575.91;5035852;28;20084;-49
2023/03/13 10:34:09;;;;;;;0.50;0.50;;;;;;;13.68;100.00;98569.59;5031036;28;20032;-47
2023/03/13 10:36:43;;;;;;;1.45;1.35;;;;;;;13.66;100.00;98580.84;5024373;28;20037;-48
2023/03/13 10:39:18;;;;;;;0.52;0.30;;;;;;;13.73;100.00;98586.06;5020203;28;20120;-50
2023/03/13 10:41:43;;;;;;;0.40;0.32;;;;;;;13.82;100.00;98571.94;5022656;28;20030;-46
2023/03/13 10:44:16;;;;;;;0.10;0.10;;;;;;;13.93;100.00;98562.34;5029148;28;20075;-50
2023/03/13 10:46:45;;;;;;;0.65;0.38;;;;;;;14.13;100.00;98578.44;5027930;28;20029;-52
2023/03/13 10:49:19;;;;;;;0.00;0.00;;;;;;;14.27;100.00;98573.41;5034031;28;20162;-48
2023/03/13 10:51:53;;;;;;;0.20;0.20;;;;;;;14.22;100.00;98571.19;5031111;28;20511;-47
2023/03/13 10:54:21;;;;;;;0.20;0.20;;;;;;;14.38;100.00;98567.69;5025681;28;20507;-48
2023/03/13 10:56:47;;;;;;;0.00;0.00;;;;;;;14.74;100.00;98568.13;5019575;28;20606;-50
2023/03/13 10:59:24;;;;;;;0.20;0.20;;;;;;;14.86;100.00;98559.25;5030881;28;20189;-49
2023/03/13 11:01:51;;;;;;;0.10;0.10;;;;;;;14.69;100.00;98567.94;5047161;28;20756;-50
2023/03/13 11:04:36;;;;;;;0.00;0.00;;;;;;;14.76;100.00;98557.63;5033246;28;20361;-49
2023/03/13 11:07:27;;;;;;;0.80;0.32;;;;;;;14.86;100.00;98551.13;5038715;28;20501;-50
2023/03/13 11:10:25;;;;;;;0.10;0.10;;;;;;;15.14;100.00;98552.91;5020528;28;20036;-52
2023/03/13 11:12:56;;;;;;;0.25;0.10;;;;;;;15.14;100.00;98550.22;5033180;28;20495;-49
2023/03/13 11:15:48;;;;;;;0.10;0.10;;;;;;;15.07;100.00;98539.59;5034437;28;20037;-51
2023/03/13 11:18:21;;;;;;;0.10;0.10;;;;;;;14.95;100.00;98556.63;5029954;28;20737;-51
2023/03/13 11:20:47;;;;;;;0.60;0.25;;;;;;;15.02;100.00;98561.09;5030809;28;20060;-55
2023/03/13 11:23:22;;;;;;;0.10;0.10;;;;;;;15.01;100.00;98554.13;5030885;28;20037;-53
2023/03/13 11:26:13;;;;;;;1.88;0.30;;;;;;;15.05;100.00;98549.38;5044965;28;20025;-50
2023/03/13 11:28:48;;;;;;;;;;;;;;;15.01;100.00;98541.34;5044303;28;20029;-49
2023/03/13 11:31:21;;;;;;;0.13;0.13;;;;;;;14.97;100.00;98546.13;5037745;28;20401;-51
2023/03/13 11:34:09;;;;;;;0.00;0.00;;;;;;;15.26;100.00;98529.69;5038422;28;20095;-48
2023/03/13 11:36:48;;;;;;;0.03;0.03;;;;;;;15.42;100.00;98521.44;5033054;28;20025;-49
2023/03/13 11:39:19;;;;;;;0.05;0.00;;;;;;;15.37;100.00;98513.81;5035966;28;20040;-53
2023/03/13 11:42:07;;;;;;;0.22;0.22;;;;;;;15.30;100.00;98522.94;5034884;28;20041;-49
2023/03/13 11:45:06;;;;;;;0.40;0.28;;;;;;;15.53;100.00;98521.81;5020492;28;20040;-55
2023/03/13 11:47:38;;;;;;;0.13;0.13;;;;;;;15.37;100.00;98520.00;5015089;28;20485;-52
2023/03/13 11:50:06;;;;;;;;;;;;;;;15.22;100.00;98512.78;5021216;28;20045;-47